Time;durP1;ratioP1;P1;durP2;ratioP2;P2;SDS_P1;SDS_P2;PMS_P1;PMS_P2;Temp;Humidity;BMP_temperature;BMP_pressure;BME280_temperature;BME280_humidity;BME280_pressure;Samples;Min_cycle;Max_cycle;Signal;HPM_P1;HPM_P2
2022/09/05 00:00:24;;;;;;;3.05;2.20;;;;;;;;;;5040748;28;20060;-68
2022/09/05 00:03:00;;;;;;;2.50;2.30;;;;;;;;;;5040734;28;20057;-68
2022/09/05 00:05:48;;;;;;;4.50;2.72;;;;;;;;;;5041035;28;20098;-68
2022/09/05 00:08:47;;;;;;;4.20;2.03;;;;;;;;;;5057370;28;20056;-68
2022/09/05 00:11:26;;;;;;;3.90;2.67;;;;;;;;;;5074833;28;20041;-68
2022/09/05 00:14:18;;;;;;;2.90;2.60;;;;;;;;;;5074424;28;20058;-68
2022/09/05 00:17:16;;;;;;;7.20;2.83;;;;;;;;;;5074333;28;20094;-69
2022/09/05 00:19:46;;;;;;;4.82;2.78;;;;;;;;;;5057426;28;20060;-69
2022/09/05 00:22:50;;;;;;;5.60;2.60;;;;;;;;;;5059596;28;20075;-69
2022/09/05 00:26:04;;;;;;;3.35;2.30;;;;;;;;;;5059630;28;20054;-69
2022/09/05 00:29:09;;;;;;;3.45;2.60;;;;;;;;;;5073985;28;20051;-69
2022/09/05 00:31:49;;;;;;;3.15;2.72;;;;;;;;;;5066477;28;20049;-68
2022/09/05 00:34:40;;;;;;;2.83;2.53;;;;;;;;;;5057201;28;20048;-68
2022/09/05 00:37:24;;;;;;;4.18;2.45;;;;;;;;;;5073754;28;20648;-68
2022/09/05 00:39:51;;;;;;;2.72;2.50;;;;;;;;;;5041017;28;20518;-68
2022/09/05 00:42:37;;;;;;;2.95;2.65;;;;;;;;;;5059111;28;20048;-68
2022/09/05 00:45:04;;;;;;;3.47;2.95;;;;;;;;;;5073608;28;20048;-68
2022/09/05 00:47:46;;;;;;;3.65;2.60;;;;;;;;;;5057345;28;20049;-68
2022/09/05 00:50:18;;;;;;;2.35;1.92;;;;;;;;;;5073755;28;20052;-68
2022/09/05 00:52:52;;;;;;;4.70;2.35;;;;;;;;;;5039507;28;20052;-68
2022/09/05 00:55:45;;;;;;;2.85;2.45;;;;;;;;;;5044404;28;20506;-68
2022/09/05 00:58:21;;;;;;;2.92;2.58;;;;;;;;;;5073519;28;20139;-68
2022/09/05 01:00:55;;;;;;;2.72;2.53;;;;;;;;;;5073538;28;20491;-68
2022/09/05 01:03:34;;;;;;;2.88;2.40;;;;;;;;;;5073612;28;20082;-68
2022/09/05 01:06:19;;;;;;;3.90;2.50;;;;;;;;;;5055792;28;20054;-68
2022/09/05 01:09:04;;;;;;;3.65;2.13;;;;;;;;;;5055215;28;20053;-68
2022/09/05 01:11:36;;;;;;;2.90;2.60;;;;;;;;;;5072965;28;20499;-68
2022/09/05 01:14:10;;;;;;;2.88;2.47;;;;;;;;;;5073043;28;20143;-68
2022/09/05 01:16:57;;;;;;;2.80;2.20;;;;;;;;;;5055701;28;20048;-68
2022/09/05 01:19:40;;;;;;;2.50;2.30;;;;;;;;;;5072662;28;20511;-68
2022/09/05 01:22:25;;;;;;;3.65;2.47;;;;;;;;;;5054903;28;20495;-68
2022/09/05 01:25:01;;;;;;;2.65;2.45;;;;;;;;;;5073095;28;20063;-68
2022/09/05 01:27:53;;;;;;;3.72;2.70;;;;;;;;;;5039836;28;20048;-68
2022/09/05 01:31:09;;;;;;;3.03;2.75;;;;;;;;;;5073016;28;20044;-68
2022/09/05 01:34:04;;;;;;;2.85;2.50;;;;;;;;;;5059395;28;20053;-67
2022/09/05 01:37:02;;;;;;;2.92;2.50;;;;;;;;;;5072833;28;20044;-69
2022/09/05 01:39:38;;;;;;;3.95;2.75;;;;;;;;;;5054810;28;20052;-69
2022/09/05 01:42:56;;;;;;;2.72;2.50;;;;;;;;;;5072378;28;20094;-69
2022/09/05 01:45:29;;;;;;;3.97;2.67;;;;;;;;;;5026107;28;20049;-69
2022/09/05 01:48:05;;;;;;;5.30;2.40;;;;;;;;;;5057072;28;20049;-69
2022/09/05 01:50:43;;;;;;;4.28;3.03;;;;;;;;;;5094390;28;20049;-69
2022/09/05 01:53:39;;;;;;;3.05;2.72;;;;;;;;;;5080046;28;20044;-69
2022/09/05 01:56:24;;;;;;;4.00;2.70;;;;;;;;;;5084260;28;20048;-69
2022/09/05 01:58:59;;;;;;;3.45;2.60;;;;;;;;;;5096663;28;20043;-69
2022/09/05 02:01:32;;;;;;;3.67;3.13;;;;;;;;;;5096975;28;20034;-69
2022/09/05 02:04:16;;;;;;;5.15;2.90;;;;;;;;;;5097446;28;20070;-69
2022/09/05 02:06:46;;;;;;;2.95;2.75;;;;;;;;;;5086115;28;20048;-69
2022/09/05 02:09:21;;;;;;;4.78;2.97;;;;;;;;;;5096458;28;20109;-69
2022/09/05 02:12:16;;;;;;;2.78;2.58;;;;;;;;;;5097204;28;20092;-69
2022/09/05 02:14:44;;;;;;;3.10;2.80;;;;;;;;;;5043647;28;20044;-69
2022/09/05 02:17:33;;;;;;;5.13;3.10;;;;;;;;;;5080315;28;20028;-69
2022/09/05 02:20:26;;;;;;;3.20;2.90;;;;;;;;;;5097588;28;20044;-70
2022/09/05 02:23:06;;;;;;;3.88;2.83;;;;;;;;;;5081046;28;20035;-70
2022/09/05 02:26:15;;;;;;;4.00;2.78;;;;;;;;;;5069693;28;20049;-70
2022/09/05 02:29:05;;;;;;;3.78;3.38;;;;;;;;;;5047676;28;20181;-70
2022/09/05 02:31:38;;;;;;;4.00;2.70;;;;;;;;;;5065338;28;20052;-69
2022/09/05 02:34:07;;;;;;;3.60;2.75;;;;;;;;;;5101653;28;20084;-69
2022/09/05 02:36:40;;;;;;;4.32;3.08;;;;;;;;;;5101758;28;20036;-69
2022/09/05 02:39:46;;;;;;;3.83;3.05;;;;;;;;;;5068439;28;20070;-69
2022/09/05 02:42:55;;;;;;;4.25;2.80;;;;;;;;;;5077578;28;20052;-69
2022/09/05 02:45:54;;;;;;;5.57;3.10;;;;;;;;;;5066750;28;20453;-69
2022/09/05 02:48:28;;;;;;;3.67;2.88;;;;;;;;;;5065547;28;20059;-69
2022/09/05 02:51:00;;;;;;;3.83;3.40;;;;;;;;;;5044007;28;20056;-69
2022/09/05 02:54:09;;;;;;;2.55;2.35;;;;;;;;;;5077381;28;20075;-70
2022/09/05 02:57:16;;;;;;;4.72;3.67;;;;;;;;;;5062694;28;20056;-70
2022/09/05 03:00:21;;;;;;;3.00;2.67;;;;;;;;;;5064834;28;20098;-69
2022/09/05 03:03:10;;;;;;;3.65;3.03;;;;;;;;;;5042549;28;20044;-69
2022/09/05 03:05:57;;;;;;;2.75;2.55;;;;;;;;;;5044973;28;20067;-69
2022/09/05 03:08:44;;;;;;;2.78;2.53;;;;;;;;;;5058841;28;20048;-69
2022/09/05 03:11:32;;;;;;;8.10;3.00;;;;;;;;;;5043386;28;20243;-69
2022/09/05 03:14:24;;;;;;;3.35;2.80;;;;;;;;;;5076513;28;20114;-69
2022/09/05 03:17:22;;;;;;;3.83;2.90;;;;;;;;;;5058604;28;20326;-69
2022/09/05 03:20:20;;;;;;;6.40;2.78;;;;;;;;;;5059494;28;20489;-69
2022/09/05 03:23:27;;;;;;;3.90;3.08;;;;;;;;;;5060959;28;20052;-69
2022/09/05 03:26:35;;;;;;;3.58;2.95;;;;;;;;;;5014012;28;20054;-69
2022/09/05 03:29:02;;;;;;;;;;;;;;;;;;5076044;28;20044;-69
2022/09/05 03:31:53;;;;;;;4.22;2.97;;;;;;;;;;5075626;28;19921;-69
2022/09/05 03:34:44;;;;;;;5.53;2.92;;;;;;;;;;5075334;28;20056;-69
2022/09/05 03:37:23;;;;;;;3.63;3.03;;;;;;;;;;5075477;28;20070;-69
2022/09/05 03:39:52;;;;;;;3.47;3.17;;;;;;;;;;5058346;28;20052;-69
2022/09/05 03:42:37;;;;;;;4.75;3.10;;;;;;;;;;5074798;28;20053;-69
2022/09/05 03:45:04;;;;;;;3.70;3.13;;;;;;;;;;5075155;28;20048;-69
2022/09/05 03:47:56;;;;;;;5.50;3.50;;;;;;;;;;5075161;28;20048;-69
2022/09/05 03:51:04;;;;;;;6.43;3.95;;;;;;;;;;5060727;28;20056;-69
2022/09/05 03:54:29;;;;;;;4.75;3.40;;;;;;;;;;5075104;28;20105;-69
2022/09/05 03:57:42;;;;;;;5.30;3.38;;;;;;;;;;5049673;28;20052;-69
2022/09/05 04:00:10;;;;;;;5.07;3.50;;;;;;;;;;5057348;28;20521;-69
2022/09/05 04:02:43;;;;;;;3.95;3.08;;;;;;;;;;5074904;28;20392;-69
2022/09/05 04:05:35;;;;;;;4.90;2.90;;;;;;;;;;5047075;28;20056;-69
2022/09/05 04:08:51;;;;;;;5.35;2.90;;;;;;;;;;5060524;28;20427;-69
2022/09/05 04:11:34;;;;;;;3.72;3.25;;;;;;;;;;5074661;28;20055;-69
2022/09/05 04:14:27;;;;;;;4.65;3.20;;;;;;;;;;5057714;28;20052;-69
2022/09/05 04:17:09;;;;;;;3.28;2.97;;;;;;;;;;5059915;28;20507;-69
2022/09/05 04:19:40;;;;;;;4.88;3.47;;;;;;;;;;5056897;28;20045;-69
2022/09/05 04:22:24;;;;;;;3.42;3.13;;;;;;;;;;5056516;28;20052;-69
2022/09/05 04:25:15;;;;;;;3.90;3.17;;;;;;;;;;5040478;28;20514;-69
2022/09/05 04:28:09;;;;;;;3.45;3.15;;;;;;;;;;5074310;28;20056;-70
2022/09/05 04:31:02;;;;;;;4.82;3.35;;;;;;;;;;5056648;28;20064;-69
2022/09/05 04:33:37;;;;;;;4.20;3.30;;;;;;;;;;5089948;23;20052;-67
2022/09/05 04:36:22;;;;;;;3.78;3.47;;;;;;;;;;5052484;28;20098;-67
2022/09/05 04:39:12;;;;;;;4.22;3.03;;;;;;;;;;5053135;28;20064;-68
2022/09/05 04:41:41;;;;;;;5.40;3.13;;;;;;;;;;5040259;28;20392;-68
2022/09/05 04:44:15;;;;;;;5.50;4.05;;;;;;;;;;5035865;28;20056;-68
2022/09/05 04:46:49;;;;;;;3.60;3.03;;;;;;;;;;5035962;28;20418;-67
2022/09/05 04:49:27;;;;;;;4.80;3.13;;;;;;;;;;5051697;28;20057;-68
2022/09/05 04:52:15;;;;;;;3.85;3.25;;;;;;;;;;5051922;28;20521;-67
2022/09/05 04:55:01;;;;;;;4.53;3.22;;;;;;;;;;5052402;28;20128;-68
2022/09/05 04:57:28;;;;;;;5.38;2.92;;;;;;;;;;5053043;28;20057;-67
2022/09/05 05:00:21;;;;;;;4.43;3.13;;;;;;;;;;5052868;28;20059;-67
2022/09/05 05:03:24;;;;;;;4.57;2.95;;;;;;;;;;5051730;28;20091;-66
2022/09/05 05:06:22;;;;;;;4.70;3.40;;;;;;;;;;5025087;28;20048;-66
2022/09/05 05:09:20;;;;;;;3.63;3.33;;;;;;;;;;5052837;28;20045;-68
2022/09/05 05:11:56;;;;;;;6.53;3.35;;;;;;;;;;5051589;28;20475;-66
2022/09/05 05:14:56;;;;;;;4.68;2.95;;;;;;;;;;5038581;28;20412;-66
2022/09/05 05:18:04;;;;;;;7.00;3.13;;;;;;;;;;5039491;28;20568;-66
2022/09/05 05:21:06;;;;;;;8.75;3.38;;;;;;;;;;5051743;28;20099;-66
2022/09/05 05:23:36;;;;;;;4.37;2.90;;;;;;;;;;5051480;28;20114;-67
2022/09/05 05:26:05;;;;;;;4.82;3.33;;;;;;;;;;5035085;28;20514;-67
2022/09/05 05:29:07;;;;;;;9.05;3.50;;;;;;;;;;5034908;28;20053;-70
2022/09/05 05:31:36;;;;;;;7.20;3.95;;;;;;;;;;5025934;28;20049;-67
2022/09/05 05:34:12;;;;;;;4.88;3.42;;;;;;;;;;5050851;28;20075;-67
2022/09/05 05:36:53;;;;;;;5.10;3.70;;;;;;;;;;5037379;28;20055;-67
2022/09/05 05:39:27;;;;;;;7.13;4.15;;;;;;;;;;5050764;28;20076;-67
2022/09/05 05:41:55;;;;;;;5.85;3.63;;;;;;;;;;5034640;28;20131;-68
2022/09/05 05:44:41;;;;;;;5.10;3.80;;;;;;;;;;5052163;28;20052;-67
2022/09/05 05:47:42;;;;;;;8.02;3.67;;;;;;;;;;5050837;28;20049;-68
2022/09/05 05:50:18;;;;;;;5.72;3.83;;;;;;;;;;5036486;28;20049;-68
2022/09/05 05:52:51;;;;;;;6.45;3.58;;;;;;;;;;5050777;28;20053;-67
2022/09/05 05:55:33;;;;;;;;;;;;;;;;;;5051464;28;20053;-67
2022/09/05 05:59:05;;;;;;;4.47;3.80;;;;;;;;;;5052056;28;19927;-68
2022/09/05 06:02:03;;;;;;;5.70;4.40;;;;;;;;;;5038632;28;20056;-68
2022/09/05 06:04:54;;;;;;;6.05;3.55;;;;;;;;;;5051694;28;20053;-67
2022/09/05 06:07:21;;;;;;;7.60;4.38;;;;;;;;;;5052026;28;20053;-67
2022/09/05 06:10:35;;;;;;;4.40;3.67;;;;;;;;;;5050305;28;20049;-67
2022/09/05 06:13:52;;;;;;;4.43;3.90;;;;;;;;;;5050877;28;20048;-67
2022/09/05 06:16:54;;;;;;;4.50;3.92;;;;;;;;;;5034657;28;20115;-67
2022/09/05 06:19:43;;;;;;;5.03;3.88;;;;;;;;;;5050196;28;20084;-67
2022/09/05 06:23:04;;;;;;;5.30;4.40;;;;;;;;;;5051672;28;20048;-67
2022/09/05 06:25:52;;;;;;;5.72;4.10;;;;;;;;;;5050415;28;20491;-67
2022/09/05 06:28:19;;;;;;;9.57;4.63;;;;;;;;;;5051255;28;20052;-69
2022/09/05 06:30:55;;;;;;;6.30;4.25;;;;;;;;;;5051549;28;20045;-68
2022/09/05 06:33:54;;;;;;;6.20;4.40;;;;;;;;;;5023598;28;20057;-67
2022/09/05 06:36:36;;;;;;;5.70;4.70;;;;;;;;;;5051918;28;20048;-68
2022/09/05 06:39:31;;;;;;;11.90;4.25;;;;;;;;;;5035642;28;20053;-68
2022/09/05 06:42:21;;;;;;;7.78;4.10;;;;;;;;;;5050114;28;20083;-67
2022/09/05 06:45:20;;;;;;;7.40;4.20;;;;;;;;;;5050830;28;20049;-68
2022/09/05 06:47:58;;;;;;;5.20;3.75;;;;;;;;;;5050158;28;20056;-67
2022/09/05 06:50:30;;;;;;;5.82;4.10;;;;;;;;;;5034302;28;20396;-67
2022/09/05 06:53:32;;;;;;;7.10;3.78;;;;;;;;;;5037117;28;20045;-68
2022/09/05 06:56:18;;;;;;;5.90;3.58;;;;;;;;;;5051376;28;20053;-69
2022/09/05 06:59:16;;;;;;;4.35;3.95;;;;;;;;;;5036012;28;20432;-69
2022/09/05 07:01:54;;;;;;;6.13;4.95;;;;;;;;;;5051323;28;20056;-69
2022/09/05 07:04:39;;;;;;;7.38;3.38;;;;;;;;;;5035623;28;20053;-69
2022/09/05 07:07:38;;;;;;;4.65;3.60;;;;;;;;;;5037659;28;20056;-70
2022/09/05 07:10:32;;;;;;;5.60;3.05;;;;;;;;;;5035733;28;20080;-69
2022/09/05 07:13:23;;;;;;;;;;;;;;;;;;5051630;28;20044;-69
2022/09/05 07:15:53;;;;;;;5.75;3.42;;;;;;;;;;5050012;28;20016;-69
2022/09/05 07:18:33;;;;;;;5.10;3.90;;;;;;;;;;5053495;28;20063;-69
2022/09/05 07:21:02;;;;;;;5.80;4.03;;;;;;;;;;5053852;28;20516;-69
2022/09/05 07:23:56;;;;;;;6.95;3.63;;;;;;;;;;5039425;28;20081;-69
2022/09/05 07:26:44;;;;;;;9.60;3.60;;;;;;;;;;5025297;28;20071;-69
2022/09/05 07:29:24;;;;;;;5.95;2.88;;;;;;;;;;5039158;28;20052;-69
2022/09/05 07:31:54;;;;;;;4.25;3.20;;;;;;;;;;5037844;28;20131;-69
2022/09/05 07:34:29;;;;;;;3.47;2.60;;;;;;;;;;5037318;28;20045;-68
2022/09/05 07:37:07;;;;;;;2.72;2.30;;;;;;;;;;5053612;28;20071;-69
2022/09/05 07:40:08;;;;;;;4.32;2.80;;;;;;;;;;5039242;28;20059;-69
2022/09/05 07:42:55;;;;;;;3.83;2.38;;;;;;;;;;5053544;28;20069;-68
2022/09/05 07:45:37;;;;;;;2.78;2.00;;;;;;;;;;5053548;28;20059;-70
2022/09/05 07:48:28;;;;;;;3.45;2.10;;;;;;;;;;5038594;28;20421;-69
2022/09/05 07:51:07;;;;;;;4.43;2.20;;;;;;;;;;5053642;28;20051;-69
2022/09/05 07:53:57;;;;;;;3.20;1.90;;;;;;;;;;5054463;28;20110;-69
2022/09/05 07:56:47;;;;;;;2.50;2.10;;;;;;;;;;5026718;28;20056;-70
2022/09/05 07:59:39;;;;;;;2.30;1.90;;;;;;;;;;5054450;28;20060;-69
2022/09/05 08:02:08;;;;;;;2.53;2.00;;;;;;;;;;5036973;28;20052;-68
2022/09/05 08:04:36;;;;;;;6.35;3.67;;;;;;;;;;5036748;28;20049;-69
2022/09/05 08:07:06;;;;;;;6.63;3.00;;;;;;;;;;5036517;28;20565;-69
2022/09/05 08:10:20;;;;;;;2.95;2.65;;;;;;;;;;5052712;28;20057;-69
2022/09/05 08:13:07;;;;;;;;;;;;;;;;;;5041031;28;20100;-69
2022/09/05 08:15:55;;;;;;;2.83;1.98;;;;;;;;;;5053803;28;19920;-69
2022/09/05 08:18:48;;;;;;;2.50;1.88;;;;;;;;;;5038962;28;20075;-69
2022/09/05 08:21:30;;;;;;;2.33;2.13;;;;;;;;;;5052634;28;20057;-69
2022/09/05 08:24:29;;;;;;;5.32;2.30;;;;;;;;;;5052515;28;20045;-69
2022/09/05 08:27:07;;;;;;;2.67;2.47;;;;;;;;;;5050960;28;20061;-69
2022/09/05 08:29:44;;;;;;;3.05;2.20;;;;;;;;;;5036610;28;20137;-69
2022/09/05 08:32:15;;;;;;;4.32;2.55;;;;;;;;;;5035913;28;20056;-69
2022/09/05 08:34:53;;;;;;;3.72;2.70;;;;;;;;;;5053736;28;20057;-68
2022/09/05 08:37:21;;;;;;;3.85;2.60;;;;;;;;;;5053785;28;20279;-70
2022/09/05 08:39:51;;;;;;;3.10;2.30;;;;;;;;;;5019592;28;20052;-69
2022/09/05 08:42:51;;;;;;;4.40;2.70;;;;;;;;;;5038606;28;20040;-69
2022/09/05 08:45:45;;;;;;;5.55;3.53;;;;;;;;;;5052393;28;20045;-69
2022/09/05 08:48:49;;;;;;;7.60;3.60;;;;;;;;;;5038934;28;20049;-69
2022/09/05 08:51:40;;;;;;;5.00;2.47;;;;;;;;;;5053614;28;20080;-69
2022/09/05 08:54:27;;;;;;;3.30;2.00;;;;;;;;;;5037683;28;20053;-69
2022/09/05 08:57:09;;;;;;;3.85;2.17;;;;;;;;;;5035511;28;20049;-69
2022/09/05 08:59:40;;;;;;;6.25;2.40;;;;;;;;;;5054563;28;20059;-70
2022/09/05 09:02:40;;;;;;;4.57;2.60;;;;;;;;;;5052907;28;20091;-70
2022/09/05 09:05:21;;;;;;;3.20;2.00;;;;;;;;;;5052006;28;20100;-69
2022/09/05 09:07:48;;;;;;;4.38;2.60;;;;;;;;;;5051412;28;20561;-69
2022/09/05 09:10:38;;;;;;;4.25;2.40;;;;;;;;;;5052747;28;20139;-69
2022/09/05 09:13:11;;;;;;;3.42;2.90;;;;;;;;;;5052812;28;20048;-69
2022/09/05 09:16:05;;;;;;;5.07;2.33;;;;;;;;;;5052818;28;20053;-69
2022/09/05 09:18:37;;;;;;;2.50;2.30;;;;;;;;;;5029744;28;20053;-69
2022/09/05 09:21:42;;;;;;;4.65;2.45;;;;;;;;;;5052791;28;20049;-69
2022/09/05 09:24:22;;;;;;;3.42;2.10;;;;;;;;;;5052364;28;20049;-68
2022/09/05 09:27:02;;;;;;;3.35;2.30;;;;;;;;;;5051570;28;20056;-69
2022/09/05 09:29:33;;;;;;;2.70;2.17;;;;;;;;;;5051215;28;20117;-68
2022/09/05 09:32:20;;;;;;;2.28;2.08;;;;;;;;;;5019061;28;20064;-69
2022/09/05 09:35:04;;;;;;;3.53;1.98;;;;;;;;;;5051196;28;20048;-69
2022/09/05 09:37:49;;;;;;;2.13;1.90;;;;;;;;;;5035424;28;20052;-69
2022/09/05 09:40:39;;;;;;;6.80;1.75;;;;;;;;;;5052367;28;20132;-69
2022/09/05 09:43:24;;;;;;;2.38;2.13;;;;;;;;;;5052031;28;20041;-69
2022/09/05 09:46:00;;;;;;;3.07;1.83;;;;;;;;;;5051200;28;20051;-69
2022/09/05 09:49:06;;;;;;;2.50;2.30;;;;;;;;;;5050800;28;20049;-69
2022/09/05 09:52:03;;;;;;;3.88;2.08;;;;;;;;;;5051209;28;20056;-69
2022/09/05 09:54:41;;;;;;;2.97;1.88;;;;;;;;;;5050915;28;20056;-69
2022/09/05 09:57:40;;;;;;;2.85;2.30;;;;;;;;;;5050969;28;20317;-69
2022/09/05 10:00:21;;;;;;;4.22;2.53;;;;;;;;;;5050578;28;20057;-69
2022/09/05 10:03:12;;;;;;;2.78;2.15;;;;;;;;;;5034941;28;20048;-69
2022/09/05 10:06:24;;;;;;;2.58;1.75;;;;;;;;;;5051008;28;20086;-69
2022/09/05 10:09:14;;;;;;;4.72;1.92;;;;;;;;;;5051758;28;20053;-69
2022/09/05 10:12:30;;;;;;;2.60;1.85;;;;;;;;;;5051606;28;20049;-69
2022/09/05 10:15:19;;;;;;;4.68;1.63;;;;;;;;;;5050841;28;20049;-69
2022/09/05 10:18:15;;;;;;;3.35;2.03;;;;;;;;;;5051558;28;20045;-69
2022/09/05 10:21:00;;;;;;;2.80;1.83;;;;;;;;;;5050465;28;20055;-69
2022/09/05 10:23:55;;;;;;;2.75;1.55;;;;;;;;;;5050361;28;20059;-69
2022/09/05 10:26:59;;;;;;;3.97;2.05;;;;;;;;;;5050486;28;20053;-70
2022/09/05 10:29:41;;;;;;;2.30;1.85;;;;;;;;;;5051597;28;20056;-69
2022/09/05 10:32:24;;;;;;;2.25;1.75;;;;;;;;;;5051477;28;20052;-69
2022/09/05 10:35:18;;;;;;;2.78;1.98;;;;;;;;;;5058004;23;20049;-70
2022/09/05 10:37:57;;;;;;;2.90;1.70;;;;;;;;;;5050906;28;20514;-70
2022/09/05 10:40:24;;;;;;;3.83;1.90;;;;;;;;;;5051138;28;20053;-70
2022/09/05 10:42:53;;;;;;;4.07;1.73;;;;;;;;;;5049834;28;20049;-70
2022/09/05 10:45:46;;;;;;;4.40;2.13;;;;;;;;;;5034633;28;20049;-70
2022/09/05 10:48:45;;;;;;;1.70;1.60;;;;;;;;;;5035785;28;20060;-70
2022/09/05 10:51:18;;;;;;;1.73;1.63;;;;;;;;;;5026590;28;20056;-70
2022/09/05 10:54:31;;;;;;;4.68;1.88;;;;;;;;;;5053879;28;20569;-70
2022/09/05 10:57:04;;;;;;;5.22;2.47;;;;;;;;;;5000354;28;20050;-70
2022/09/05 10:59:55;;;;;;;2.30;1.80;;;;;;;;;;5054885;28;20048;-70
2022/09/05 11:02:42;;;;;;;2.50;2.00;;;;;;;;;;5042650;28;20049;-70
2022/09/05 11:05:23;;;;;;;2.47;1.45;;;;;;;;;;5022424;28;20044;-70
2022/09/05 11:08:09;;;;;;;1.65;1.38;;;;;;;;;;5036717;28;20071;-70
2022/09/05 11:10:43;;;;;;;5.28;1.80;;;;;;;;;;5055043;28;20095;-70
2022/09/05 11:13:31;;;;;;;4.03;1.50;;;;;;;;;;5054546;28;20435;-70
2022/09/05 11:15:59;;;;;;;1.60;1.50;;;;;;;;;;5039291;28;20061;-70
2022/09/05 11:18:41;;;;;;;2.95;1.75;;;;;;;;;;5054129;28;20044;-70
2022/09/05 11:21:37;;;;;;;2.10;1.10;;;;;;;;;;5054334;28;20107;-70
2022/09/05 11:24:16;;;;;;;2.00;1.80;;;;;;;;;;5054024;28;20098;-70
2022/09/05 11:26:47;;;;;;;3.05;1.70;;;;;;;;;;5037119;28;20057;-70
2022/09/05 11:29:39;;;;;;;2.08;1.13;;;;;;;;;;5025508;28;20053;-70
2022/09/05 11:32:24;;;;;;;2.80;1.58;;;;;;;;;;5054102;28;20056;-70
2022/09/05 11:35:23;;;;;;;2.10;1.80;;;;;;;;;;5089723;27;20385;-68
2022/09/05 11:38:10;;;;;;;1.65;1.52;;;;;;;;;;5088720;28;20396;-68
2022/09/05 11:41:32;;;;;;;1.42;1.17;;;;;;;;;;5090304;28;20052;-68
2022/09/05 11:44:38;;;;;;;1.15;1.10;;;;;;;;;;5088229;28;20044;-68
2022/09/05 11:47:42;;;;;;;2.35;1.45;;;;;;;;;;5090137;28;20048;-69
2022/09/05 11:50:36;;;;;;;1.10;1.00;;;;;;;;;;5090620;28;20122;-69
2022/09/05 11:53:34;;;;;;;2.38;1.33;;;;;;;;;;5100237;28;20052;-69
2022/09/05 11:56:09;;;;;;;3.17;1.15;;;;;;;;;;5094088;28;20499;-70
2022/09/05 11:59:00;;;;;;;1.58;1.10;;;;;;;;;;5090628;28;20498;-70
2022/09/05 12:02:03;;;;;;;2.17;1.02;;;;;;;;;;5092322;28;20469;-70
2022/09/05 12:08:34;;;;;;;2.95;1.20;;;;;;;;;;5089416;28;20070;-70
2022/09/05 12:11:12;;;;;;;2.00;1.15;;;;;;;;;;5071390;28;20395;-70
2022/09/05 12:14:06;;;;;;;1.50;1.25;;;;;;;;;;5072339;28;20127;-71
2022/09/05 12:17:04;;;;;;;1.10;1.00;;;;;;;;;;5088446;28;20048;-70
2022/09/05 12:19:38;;;;;;;1.67;1.48;;;;;;;;;;5088380;28;20059;-71
2022/09/05 12:22:27;;;;;;;3.00;1.42;;;;;;;;;;5089052;28;20052;-71
2022/09/05 12:25:19;;;;;;;1.20;1.10;;;;;;;;;;5089010;28;20044;-71
2022/09/05 12:28:06;;;;;;;1.63;1.20;;;;;;;;;;5088958;28;20048;-69
2022/09/05 12:31:08;;;;;;;1.10;1.00;;;;;;;;;;5088849;28;20106;-69
2022/09/05 12:33:55;;;;;;;1.98;1.15;;;;;;;;;;5075583;28;20094;-70
2022/09/05 12:36:48;;;;;;;2.03;1.20;;;;;;;;;;5073958;28;20052;-70
2022/09/05 12:39:39;;;;;;;2.50;1.25;;;;;;;;;;5087808;28;20113;-70
2022/09/05 12:42:52;;;;;;;2.22;1.17;;;;;;;;;;5089016;28;20045;-70
2022/09/05 12:46:02;;;;;;;1.42;1.00;;;;;;;;;;5081435;28;20055;-70
2022/09/05 12:48:58;;;;;;;1.13;1.10;;;;;;;;;;5074276;28;20084;-70
2022/09/05 12:51:35;;;;;;;1.55;1.20;;;;;;;;;;5059360;28;20056;-70
2022/09/05 12:54:26;;;;;;;2.45;1.33;;;;;;;;;;5059358;28;20048;-70
2022/09/05 12:57:18;;;;;;;1.20;1.10;;;;;;;;;;5074899;28;20478;-70
2022/09/05 13:00:20;;;;;;;1.45;1.30;;;;;;;;;;5074953;28;20440;-69
2022/09/05 13:03:08;;;;;;;1.35;1.20;;;;;;;;;;5060478;28;20064;-70
2022/09/05 13:06:13;;;;;;;1.95;1.00;;;;;;;;;;5060200;28;20052;-70
2022/09/05 13:08:56;;;;;;;2.92;1.70;;;;;;;;;;5073640;28;20055;-70
2022/09/05 13:11:25;;;;;;;1.77;1.60;;;;;;;;;;5057541;28;20135;-69
2022/09/05 13:14:41;;;;;;;2.70;1.30;;;;;;;;;;5059914;28;20440;-70
2022/09/05 13:17:37;;;;;;;1.33;1.00;;;;;;;;;;5060643;28;20049;-69
2022/09/05 13:20:17;;;;;;;1.80;1.38;;;;;;;;;;5058238;28;20594;-69
2022/09/05 13:22:45;;;;;;;1.33;1.13;;;;;;;;;;5073251;28;20273;-69
2022/09/05 13:25:23;;;;;;;2.53;1.13;;;;;;;;;;5057108;28;20571;-69
2022/09/05 13:27:58;;;;;;;3.60;1.67;;;;;;;;;;5073088;28;20059;-70
2022/09/05 13:30:24;;;;;;;3.65;1.90;;;;;;;;;;5057539;28;20121;-70
2022/09/05 13:33:16;;;;;;;1.58;1.10;;;;;;;;;;5059449;28;20056;-69
2022/09/05 13:36:07;;;;;;;2.60;1.20;;;;;;;;;;5060204;28;20052;-69
2022/09/05 13:39:03;;;;;;;4.43;1.95;;;;;;;;;;5060618;28;20106;-69
2022/09/05 13:41:42;;;;;;;1.85;1.35;;;;;;;;;;5074225;28;20055;-69
2022/09/05 13:44:13;;;;;;;2.25;1.00;;;;;;;;;;5057188;28;20045;-69
2022/09/05 13:46:53;;;;;;;1.30;1.20;;;;;;;;;;5073893;28;20572;-68
2022/09/05 13:49:48;;;;;;;2.33;1.30;;;;;;;;;;5073726;28;20048;-69
2022/09/05 13:52:28;;;;;;;1.75;1.23;;;;;;;;;;5072692;28;20087;-69
2022/09/05 13:55:15;;;;;;;2.22;1.20;;;;;;;;;;5073572;28;20048;-69
2022/09/05 13:57:56;;;;;;;1.83;1.30;;;;;;;;;;5071867;28;20063;-69
2022/09/05 14:00:37;;;;;;;1.73;1.05;;;;;;;;;;5072414;28;20560;-69
2022/09/05 14:03:27;;;;;;;4.00;1.20;;;;;;;;;;5073671;28;20105;-69
2022/09/05 14:06:35;;;;;;;1.50;1.40;;;;;;;;;;5072689;28;20706;-69
2022/09/05 14:09:30;;;;;;;1.88;1.30;;;;;;;;;;5073503;28;20206;-69
2022/09/05 14:12:28;;;;;;;1.50;1.27;;;;;;;;;;5072215;28;20044;-69
2022/09/05 14:15:03;;;;;;;1.20;1.10;;;;;;;;;;5073372;28;20388;-69
2022/09/05 14:17:51;;;;;;;1.13;1.05;;;;;;;;;;5073484;28;20123;-69
2022/09/05 14:23:12;;;;;;;2.42;1.25;;;;;;;;;;5072350;28;20076;-69
2022/09/05 14:25:41;;;;;;;3.03;1.15;;;;;;;;;;5055764;28;20499;-69
2022/09/05 14:28:13;;;;;;;1.42;1.33;;;;;;;;;;5071877;28;20053;-69
2022/09/05 14:30:55;;;;;;;1.80;0.85;;;;;;;;;;5055550;28;20048;-69
2022/09/05 14:33:55;;;;;;;1.20;1.10;;;;;;;;;;5058808;28;20048;-69
2022/09/05 14:36:52;;;;;;;1.77;1.20;;;;;;;;;;5072704;28;20048;-69
2022/09/05 14:40:03;;;;;;;1.42;1.20;;;;;;;;;;5071866;28;20044;-69
2022/09/05 14:43:14;;;;;;;1.23;1.13;;;;;;;;;;5072109;28;20487;-69
2022/09/05 14:46:08;;;;;;;1.73;1.50;;;;;;;;;;5073174;28;20458;-69
2022/09/05 14:49:11;;;;;;;1.40;1.10;;;;;;;;;;5072774;28;20053;-69
2022/09/05 14:51:41;;;;;;;2.00;1.38;;;;;;;;;;5072746;28;20044;-69
2022/09/05 14:54:13;;;;;;;1.55;1.45;;;;;;;;;;5055070;28;20055;-68
2022/09/05 14:57:03;;;;;;;1.40;1.30;;;;;;;;;;5072354;28;20114;-69
2022/09/05 14:59:51;;;;;;;2.35;1.52;;;;;;;;;;5071078;28;20499;-69
2022/09/05 15:02:42;;;;;;;2.35;1.55;;;;;;;;;;5057862;28;20538;-69
2022/09/05 15:05:27;;;;;;;3.08;1.38;;;;;;;;;;5071386;28;20070;-69
2022/09/05 15:08:07;;;;;;;2.83;1.40;;;;;;;;;;5071940;28;20049;-69
2022/09/05 15:10:55;;;;;;;1.58;1.27;;;;;;;;;;5071397;28;20571;-69
2022/09/05 15:14:00;;;;;;;1.95;1.30;;;;;;;;;;5072500;28;20048;-69
2022/09/05 15:16:26;;;;;;;1.30;1.20;;;;;;;;;;5055644;28;20442;-69
2022/09/05 15:18:55;;;;;;;1.40;1.30;;;;;;;;;;5072416;28;20049;-69
2022/09/05 15:21:37;;;;;;;3.45;1.65;;;;;;;;;;5072366;28;20054;-69
2022/09/05 15:24:14;;;;;;;;;;;;;;;;;;5071549;28;20058;-69
2022/09/05 15:27:00;;;;;;;2.75;1.30;;;;;;;;;;5071227;28;19991;-69
2022/09/05 15:29:35;;;;;;;2.17;1.50;;;;;;;;;;5072092;28;20052;-69
2022/09/05 15:32:13;;;;;;;3.95;1.60;;;;;;;;;;5071073;28;20056;-69
2022/09/05 15:34:40;;;;;;;2.03;1.20;;;;;;;;;;5070572;28;20423;-69
2022/09/05 15:37:35;;;;;;;1.40;1.30;;;;;;;;;;5071028;28;20044;-69
2022/09/05 15:40:09;;;;;;;2.05;1.40;;;;;;;;;;5072309;28;20049;-69
2022/09/05 15:42:50;;;;;;;1.55;1.45;;;;;;;;;;5071125;28;20083;-69
2022/09/05 15:45:33;;;;;;;1.65;1.25;;;;;;;;;;5071122;28;20392;-69
2022/09/05 15:48:21;;;;;;;2.22;1.30;;;;;;;;;;5055810;28;20140;-69
2022/09/05 15:50:50;;;;;;;5.10;1.63;;;;;;;;;;5070736;28;20049;-69
2022/09/05 15:53:35;;;;;;;2.58;1.50;;;;;;;;;;5054489;28;20056;-69
2022/09/05 15:56:08;;;;;;;1.85;1.30;;;;;;;;;;5055033;28;20045;-69
2022/09/05 15:58:36;;;;;;;1.70;1.58;;;;;;;;;;5072160;28;20049;-69
2022/09/05 16:01:31;;;;;;;2.95;1.70;;;;;;;;;;5056862;28;20462;-69
2022/09/05 16:04:24;;;;;;;4.05;2.03;;;;;;;;;;5070451;28;20052;-69
2022/09/05 16:07:18;;;;;;;3.35;1.52;;;;;;;;;;5072461;28;20052;-70
2022/09/05 16:10:06;;;;;;;1.50;1.38;;;;;;;;;;5071957;28;20044;-69
2022/09/05 16:12:54;;;;;;;1.85;1.60;;;;;;;;;;5072093;28;20240;-69
2022/09/05 16:15:23;;;;;;;2.42;1.67;;;;;;;;;;5071898;28;20052;-69
2022/09/05 16:18:26;;;;;;;1.70;1.40;;;;;;;;;;5057092;28;20056;-69
2022/09/05 16:21:12;;;;;;;1.38;1.23;;;;;;;;;;5061476;28;20056;-70
2022/09/05 16:24:03;;;;;;;1.60;1.35;;;;;;;;;;5060991;28;20415;-70
2022/09/05 16:26:32;;;;;;;;;;;;;;;;;;5058960;28;20569;-70
2022/09/05 16:29:01;;;;;;;1.85;1.45;;;;;;;;;;5074087;28;20375;-70
2022/09/05 16:32:00;;;;;;;1.70;1.55;;;;;;;;;;5074313;28;20063;-70
2022/09/05 16:34:30;;;;;;;1.70;1.58;;;;;;;;;;5074899;28;20049;-70
2022/09/05 16:37:05;;;;;;;1.50;1.40;;;;;;;;;;5075350;28;20056;-70
2022/09/05 16:39:36;;;;;;;2.38;1.33;;;;;;;;;;5074169;28;20576;-70
2022/09/05 16:42:11;;;;;;;1.30;1.20;;;;;;;;;;5074179;28;20060;-70
2022/09/05 16:44:57;;;;;;;1.50;1.40;;;;;;;;;;5074056;28;20044;-70
2022/09/05 16:47:38;;;;;;;2.92;1.65;;;;;;;;;;5074888;28;20056;-70